createdAt,value
2022-11-21T00:00:48.448Z,99320.38
2022-11-21T00:03:15.357Z,99321.34
2022-11-21T00:05:44.400Z,99323.00
2022-11-21T00:08:12.678Z,99323.91
2022-11-21T00:10:39.903Z,99316.88
2022-11-21T00:13:07.509Z,99288.34
2022-11-21T00:15:37.617Z,99307.91
2022-11-21T00:18:04.894Z,99315.25
2022-11-21T00:20:31.870Z,99315.25
2022-11-21T00:22:58.546Z,99304.72
2022-11-21T00:25:25.056Z,99312.56
2022-11-21T00:27:53.114Z,99301.31
2022-11-21T00:30:19.861Z,99305.72
2022-11-21T00:32:46.333Z,99304.88
2022-11-21T00:35:13.305Z,99295.41
2022-11-21T00:37:39.858Z,99299.75
2022-11-21T00:40:06.802Z,99297.06
2022-11-21T00:42:33.429Z,99299.63
2022-11-21T00:45:00.016Z,99296.06
2022-11-21T00:47:26.631Z,99297.78
2022-11-21T00:49:53.136Z,99294.50
2022-11-21T00:52:19.722Z,99299.75
2022-11-21T00:54:46.299Z,99301.56
2022-11-21T00:57:12.775Z,99295.56
2022-11-21T00:59:39.348Z,99270.03
2022-11-21T01:02:05.932Z,99267.19
2022-11-21T01:04:34.454Z,99305.84
2022-11-21T01:07:01.312Z,99293.00
2022-11-21T01:09:28.765Z,99298.38
2022-11-21T01:11:56.460Z,99286.91
2022-11-21T01:14:23.187Z,99286.63
2022-11-21T01:16:49.698Z,99286.69
2022-11-21T01:19:16.270Z,99288.53
2022-11-21T01:21:42.845Z,99280.66
2022-11-21T01:24:11.753Z,99254.34
2022-11-21T01:26:38.423Z,99242.22
2022-11-21T01:29:05.660Z,99272.69
2022-11-21T01:31:32.258Z,99277.81
2022-11-21T01:34:00.323Z,99273.56
2022-11-21T01:36:29.657Z,99278.47
2022-11-21T01:38:58.994Z,99271.53
2022-11-21T01:41:31.254Z,99281.91
2022-11-21T01:43:58.618Z,99279.34
2022-11-21T01:46:26.075Z,99277.38
2022-11-21T01:49:09.696Z,99271.41
2022-11-21T01:51:56.035Z,99266.28
2022-11-21T01:54:45.507Z,99273.34
2022-11-21T01:57:21.716Z,99266.41
2022-11-21T01:59:54.751Z,99267.44
2022-11-21T02:02:27.728Z,99269.75
2022-11-21T02:04:55.877Z,99270.59
2022-11-21T02:07:24.866Z,99273.16
2022-11-21T02:09:59.214Z,99269.94
2022-11-21T02:12:48.306Z,99265.53
2022-11-21T02:15:15.464Z,99248.63
2022-11-21T02:17:42.016Z,99244.91
2022-11-21T02:20:12.459Z,99261.81
2022-11-21T02:22:45.093Z,99261.75
2022-11-21T02:25:22.874Z,99274.03
2022-11-21T02:27:52.498Z,99263.50
2022-11-21T02:30:19.355Z,99259.06
2022-11-21T02:32:49.479Z,99259.19
2022-11-21T02:35:18.332Z,99259.84
2022-11-21T02:37:47.062Z,99264.00
2022-11-21T02:40:22.720Z,99259.63
2022-11-21T02:43:18.945Z,99207.91
2022-11-21T02:45:46.730Z,99269.56
2022-11-21T02:48:13.965Z,99265.34
2022-11-21T02:50:43.236Z,99277.50
2022-11-21T02:53:16.053Z,99271.66
2022-11-21T02:55:43.457Z,99289.72
2022-11-21T02:58:10.519Z,99295.69
2022-11-21T03:00:38.799Z,99278.59
2022-11-21T03:03:05.580Z,99293.97
2022-11-21T03:05:32.176Z,99287.88
2022-11-21T03:07:58.818Z,99287.81
2022-11-21T03:10:25.460Z,99289.41
2022-11-21T03:13:00.773Z,99288.44
2022-11-21T03:15:30.349Z,99291.25
2022-11-21T03:17:57.555Z,99282.81
2022-11-21T03:20:24.507Z,99300.59
2022-11-21T03:22:51.061Z,99299.72
2022-11-21T03:25:17.973Z,99298.94
2022-11-21T03:27:44.500Z,99298.03
2022-11-21T03:30:11.662Z,99295.53
2022-11-21T03:32:38.216Z,99303.28
2022-11-21T03:35:05.471Z,99298.03
2022-11-21T03:37:32.056Z,99277.75
2022-11-21T03:39:58.551Z,99307.59
2022-11-21T03:42:25.155Z,99301.44
2022-11-21T03:44:51.703Z,99304.00
2022-11-21T03:47:18.276Z,99299.72
2022-11-21T03:49:44.938Z,99312.00
2022-11-21T03:52:11.444Z,99287.41
2022-11-21T03:54:37.930Z,99315.41
2022-11-21T03:57:04.434Z,99311.94
2022-11-21T03:59:31.017Z,99319.09
2022-11-21T04:01:57.595Z,99312.72
2022-11-21T04:04:24.219Z,99317.84
2022-11-21T04:06:50.760Z,99313.59
2022-11-21T04:09:17.244Z,99314.44
2022-11-21T04:11:43.808Z,99318.84
2022-11-21T04:14:10.395Z,99321.47
2022-11-21T04:16:36.924Z,99321.41
2022-11-21T04:19:03.526Z,99304.06
2022-11-21T04:21:30.109Z,99317.44
2022-11-21T04:23:56.699Z,99323.41
2022-11-21T04:26:23.313Z,99335.50
2022-11-21T04:28:49.854Z,99332.16
2022-11-21T04:31:16.418Z,99328.81
2022-11-21T04:33:43.119Z,99325.25
2022-11-21T04:36:09.958Z,99317.69
2022-11-21T04:38:37.080Z,99329.41
2022-11-21T04:41:04.738Z,99314.47
2022-11-21T04:43:31.376Z,99326.53
2022-11-21T04:45:57.923Z,99326.53
2022-11-21T04:48:24.809Z,99322.03
2022-11-21T04:50:51.328Z,99324.69
2022-11-21T04:53:17.818Z,99292.22
2022-11-21T04:55:44.386Z,99324.66
2022-11-21T04:58:10.928Z,99328.75
2022-11-21T05:00:37.464Z,99324.41
2022-11-21T05:03:05.326Z,99331.38
2022-11-21T05:05:32.531Z,99326.03
2022-11-21T05:07:59.346Z,99325.13
2022-11-21T05:10:25.950Z,99317.63
2022-11-21T05:13:18.854Z,99311.78
2022-11-21T05:15:45.472Z,99335.69
2022-11-21T05:18:12.327Z,99336.88
2022-11-21T05:20:39.165Z,99341.44
2022-11-21T05:23:05.856Z,99342.47
2022-11-21T05:25:32.549Z,99332.94
2022-11-21T05:27:59.075Z,99345.09
2022-11-21T05:30:25.635Z,99333.00
2022-11-21T05:32:52.218Z,99340.47
2022-11-21T05:35:19.105Z,99336.06
2022-11-21T05:37:45.702Z,99329.84
2022-11-21T05:40:12.539Z,99331.84
2022-11-21T05:42:58.629Z,99323.69
2022-11-21T05:45:25.211Z,99334.25
2022-11-21T05:47:51.777Z,99332.63
2022-11-21T05:50:18.370Z,99332.28
2022-11-21T05:52:45.414Z,99338.41
2022-11-21T05:55:11.949Z,99336.69
2022-11-21T05:57:38.528Z,99333.06
2022-11-21T06:00:05.564Z,99343.47
2022-11-21T06:02:50.615Z,99332.03
2022-11-21T06:05:17.196Z,99339.72
2022-11-21T06:07:43.853Z,99313.13
2022-11-21T06:10:10.493Z,99338.13
2022-11-21T06:12:37.127Z,99332.28
2022-11-21T06:15:03.947Z,99330.56
2022-11-21T06:17:30.616Z,99334.97
2022-11-21T06:19:57.193Z,99299.16
2022-11-21T06:22:23.729Z,99328.19
2022-11-21T06:24:50.226Z,99336.91
2022-11-21T06:27:16.789Z,99333.50
2022-11-21T06:29:43.355Z,99340.03
2022-11-21T06:32:09.899Z,99304.22
2022-11-21T06:34:36.593Z,99326.16
2022-11-21T06:37:03.212Z,99333.16
2022-11-21T06:39:29.922Z,99313.91
2022-11-21T06:41:56.532Z,99299.41
2022-11-21T06:44:23.201Z,99329.59
2022-11-21T06:46:51.626Z,99327.91
2022-11-21T06:49:18.700Z,99312.78
2022-11-21T06:51:45.273Z,99347.13
2022-11-21T06:54:16.552Z,99355.97
2022-11-21T06:56:44.140Z,99355.78
2022-11-21T06:59:10.981Z,99362.69
2022-11-21T07:01:37.642Z,99350.53
2022-11-21T07:04:04.497Z,99362.53
2022-11-21T07:06:31.170Z,99334.25
2022-11-21T07:09:31.204Z,99353.50
2022-11-21T07:11:44.398Z,99356.50
2022-11-21T07:14:14.623Z,99353.69
2022-11-21T07:16:41.152Z,99321.94
2022-11-21T07:19:07.658Z,99358.41
2022-11-21T07:21:34.529Z,99360.06
2022-11-21T07:24:01.104Z,99355.84
2022-11-21T07:26:27.763Z,99348.03
2022-11-21T07:28:54.275Z,99363.53
2022-11-21T07:31:20.844Z,99362.69
2022-11-21T07:33:48.030Z,99368.69
2022-11-21T07:36:14.750Z,99378.50
2022-11-21T07:38:41.890Z,99384.69
2022-11-21T07:41:09.249Z,99377.00
2022-11-21T07:43:35.820Z,99379.44
2022-11-21T07:46:02.388Z,99384.38
2022-11-21T07:48:28.944Z,99361.91
2022-11-21T07:50:55.462Z,99374.72
2022-11-21T07:53:22.028Z,99379.25
2022-11-21T07:55:48.584Z,99385.97
2022-11-21T07:58:16.840Z,99354.16
2022-11-21T08:00:43.700Z,99377.06
2022-11-21T08:03:14.182Z,99364.28
2022-11-21T08:05:42.958Z,99373.38
2022-11-21T08:08:13.658Z,99381.94
2022-11-21T08:10:41.326Z,99380.78
2022-11-21T08:13:08.052Z,99369.59
2022-11-21T08:15:34.576Z,99374.59
2022-11-21T08:18:12.342Z,99368.34
2022-11-21T08:20:39.349Z,99376.41
2022-11-21T08:23:06.672Z,99373.41
2022-11-21T08:25:36.627Z,99373.34
2022-11-21T08:28:03.725Z,99363.00
2022-11-21T08:30:30.594Z,99367.25
2022-11-21T08:33:01.282Z,99365.69
2022-11-21T08:35:28.191Z,99372.66
2022-11-21T08:38:01.766Z,99343.78
2022-11-21T08:40:30.460Z,99375.47
2022-11-21T08:43:01.563Z,99369.38
2022-11-21T08:45:28.620Z,99373.00
2022-11-21T08:47:55.407Z,99338.47
2022-11-21T08:50:23.252Z,99370.53
2022-11-21T08:52:50.109Z,99367.38
2022-11-21T08:55:16.760Z,99372.31
2022-11-21T08:57:43.432Z,99359.75
2022-11-21T09:00:14.290Z,99358.03
2022-11-21T09:02:40.810Z,99356.59
2022-11-21T09:05:08.466Z,99353.69
2022-11-21T09:07:35.550Z,99346.06
2022-11-21T09:10:02.370Z,99364.22
2022-11-21T09:12:28.980Z,99357.91
2022-11-21T09:15:13.872Z,99362.91
2022-11-21T09:17:58.853Z,99365.47
2022-11-21T09:20:25.581Z,99333.91
2022-11-21T09:22:52.390Z,99358.75
2022-11-21T09:25:18.965Z,99364.00
2022-11-21T09:27:45.542Z,99358.03
2022-11-21T09:30:12.270Z,99360.59
2022-11-21T09:32:40.286Z,99352.69
2022-11-21T09:35:07.053Z,99363.91
2022-11-21T09:37:40.313Z,99359.78
2022-11-21T09:40:07.500Z,99354.16
2022-11-21T09:42:58.253Z,99341.47
2022-11-21T09:45:41.384Z,99349.81
2022-11-21T09:48:12.633Z,99341.19
2022-11-21T09:50:50.712Z,99349.88
2022-11-21T09:53:31.907Z,99357.38
2022-11-21T09:56:02.903Z,99320.31
2022-11-21T09:58:56.530Z,99347.84
2022-11-21T10:01:23.256Z,99340.81
2022-11-21T10:03:52.437Z,99338.13
2022-11-21T10:06:29.178Z,99306.50
2022-11-21T10:09:30.224Z,99312.94
2022-11-21T10:12:34.647Z,99321.75
2022-11-21T10:15:22.324Z,99293.75
2022-11-21T10:18:26.245Z,99324.03
2022-11-21T10:21:17.104Z,99302.44
2022-11-21T10:23:58.879Z,99321.00
2022-11-21T10:26:56.223Z,99310.28
2022-11-21T10:29:32.485Z,99305.84
2022-11-21T10:32:03.878Z,99299.72
2022-11-21T10:34:35.189Z,99292.22
2022-11-21T10:37:37.013Z,99293.34
2022-11-21T10:40:15.402Z,99284.44
2022-11-21T10:42:56.354Z,99287.31
2022-11-21T10:45:23.444Z,99280.59
2022-11-21T10:47:53.056Z,99270.94
2022-11-21T10:50:39.137Z,99251.03
2022-11-21T10:53:28.314Z,99275.03
2022-11-21T10:56:16.837Z,99268.31
2022-11-21T10:58:57.960Z,99273.72
2022-11-21T11:01:27.423Z,99264.34
2022-11-21T11:04:29.021Z,99262.47
2022-11-21T11:06:57.428Z,99264.03
2022-11-21T11:09:32.471Z,99241.06
2022-11-21T11:12:20.980Z,99259.81
2022-11-21T11:14:56.119Z,99254.47
2022-11-21T11:17:34.140Z,99250.56
2022-11-21T11:20:07.144Z,99250.66
2022-11-21T11:22:33.800Z,99245.56
2022-11-21T11:25:05.030Z,99243.94
2022-11-21T11:27:31.682Z,99240.72
2022-11-21T11:30:07.201Z,99199.00
2022-11-21T11:32:40.001Z,99222.94
2022-11-21T11:35:22.143Z,99196.91
2022-11-21T11:38:02.398Z,99226.50
2022-11-21T11:40:32.707Z,99224.13
2022-11-21T11:43:30.083Z,99206.09
2022-11-21T11:46:32.086Z,99215.53
2022-11-21T11:49:19.945Z,99203.81
2022-11-21T11:51:57.108Z,99201.41
2022-11-21T11:54:52.744Z,99192.25
2022-11-21T11:57:19.815Z,99195.97
2022-11-21T12:00:03.804Z,99162.47
2022-11-21T12:03:01.905Z,99190.22
2022-11-21T12:05:30.873Z,99168.66
2022-11-21T12:11:29.930Z,99180.03
2022-11-21T12:13:57.682Z,99141.53
2022-11-21T12:16:26.774Z,99164.56
2022-11-21T12:19:02.774Z,99168.81
2022-11-21T12:21:29.541Z,99154.47
2022-11-21T12:23:57.852Z,99134.41
2022-11-21T12:26:36.601Z,99143.50
2022-11-21T12:29:40.722Z,99134.84
2022-11-21T12:32:25.457Z,99126.66
2022-11-21T12:35:24.767Z,99121.66
2022-11-21T12:38:14.294Z,99118.75
2022-11-21T12:40:59.595Z,99110.63
2022-11-21T12:43:53.079Z,99116.13
2022-11-21T12:46:32.697Z,99118.25
2022-11-21T12:49:40.569Z,99110.94
2022-11-21T12:53:04.423Z,99105.66
2022-11-21T12:55:39.910Z,99109.22
2022-11-21T12:58:33.691Z,99089.34
2022-11-21T13:01:27.725Z,99099.72
2022-11-21T13:04:00.508Z,99099.16
2022-11-21T13:06:30.481Z,99094.66
2022-11-21T13:09:02.037Z,99086.84
2022-11-21T13:11:46.834Z,99088.53
2022-11-21T13:14:29.434Z,99087.75
2022-11-21T13:17:26.804Z,99084.44
2022-11-21T13:20:02.285Z,99079.16
2022-11-21T13:22:38.056Z,99081.56
2022-11-21T13:25:33.095Z,99047.66
2022-11-21T13:28:17.631Z,99062.69
2022-11-21T13:30:47.488Z,99062.44
2022-11-21T13:33:39.908Z,99059.41
2022-11-21T13:36:06.543Z,99053.94
2022-11-21T13:38:52.993Z,99050.66
2022-11-21T13:41:53.297Z,99049.97
2022-11-21T13:44:32.184Z,99029.56
2022-11-21T13:47:12.487Z,99024.13
2022-11-21T13:50:12.988Z,99043.75
2022-11-21T13:53:03.742Z,99035.84
2022-11-21T13:55:48.861Z,99031.44
2022-11-21T13:58:54.646Z,99018.19
2022-11-21T14:01:58.546Z,99009.00
2022-11-21T14:04:33.799Z,99002.72
2022-11-21T14:07:23.987Z,99011.38
2022-11-21T14:09:53.102Z,99000.84
2022-11-21T14:12:33.610Z,98990.91
2022-11-21T14:15:01.034Z,98980.63
2022-11-21T14:17:44.590Z,98978.31
2022-11-21T14:20:35.554Z,98973.88
2022-11-21T14:23:15.766Z,98949.28
2022-11-21T14:25:47.780Z,98955.72
2022-11-21T14:28:24.742Z,98960.53
2022-11-21T14:30:59.300Z,98954.50
2022-11-21T14:33:27.360Z,98939.63
2022-11-21T14:36:15.027Z,98948.84
2022-11-21T14:39:07.539Z,98946.38
2022-11-21T14:41:39.113Z,98940.53
2022-11-21T14:44:15.390Z,98936.94
2022-11-21T14:46:42.977Z,98941.19
2022-11-21T14:49:16.714Z,98931.84
2022-11-21T14:51:59.863Z,98929.91
2022-11-21T14:54:31.113Z,98936.63
2022-11-21T14:57:00.500Z,98938.69
2022-11-21T14:59:48.057Z,98948.31
2022-11-21T15:02:26.603Z,98935.31
2022-11-21T15:04:56.764Z,98926.56
2022-11-21T15:07:36.215Z,98901.94
2022-11-21T15:13:08.452Z,98907.91
2022-11-21T15:15:38.703Z,98905.59
2022-11-21T15:18:27.453Z,98899.69
2022-11-21T15:20:57.200Z,98882.19
2022-11-21T15:23:35.474Z,98879.66
2022-11-21T15:26:02.442Z,98869.44
2022-11-21T15:28:30.131Z,98867.28
2022-11-21T15:31:19.360Z,98859.63
2022-11-21T15:34:33.709Z,98839.63
2022-11-21T15:37:12.659Z,98835.22
2022-11-21T15:39:44.373Z,98839.72
2022-11-21T15:42:40.352Z,98835.59
2022-11-21T15:48:02.238Z,98821.91
2022-11-21T15:50:28.977Z,98797.91
2022-11-21T15:52:55.561Z,98775.44
2022-11-21T15:55:25.888Z,98791.19
2022-11-21T15:57:13.500Z,98833.03
2022-11-21T15:57:52.455Z,98793.06
2022-11-21T16:00:19.493Z,98792.19
2022-11-21T16:02:47.291Z,98781.50
2022-11-21T16:05:15.655Z,98756.00
2022-11-21T16:07:42.406Z,98773.53
2022-11-21T16:10:16.564Z,98763.34
2022-11-21T16:12:47.019Z,98761.56
2022-11-21T16:15:13.837Z,98749.44
2022-11-21T16:17:44.969Z,98742.56
2022-11-21T16:20:11.556Z,98724.19
2022-11-21T16:22:41.547Z,98750.06
2022-11-21T16:25:12.552Z,98737.63
2022-11-21T16:27:39.105Z,98734.91
2022-11-21T16:30:06.187Z,98729.03
2022-11-21T16:32:32.716Z,98722.00
2022-11-21T16:34:59.288Z,98714.72
2022-11-21T16:37:25.856Z,98699.78
2022-11-21T16:39:53.407Z,98695.44
2022-11-21T16:42:20.196Z,98700.78
2022-11-21T16:44:48.115Z,98687.06
2022-11-21T16:47:15.340Z,98682.97
2022-11-21T16:49:48.305Z,98681.50
2022-11-21T16:52:15.900Z,98685.91
2022-11-21T16:54:42.529Z,98676.47
2022-11-21T16:57:09.035Z,98663.50
2022-11-21T16:59:35.607Z,98640.47
2022-11-21T17:02:02.110Z,98656.31
2022-11-21T17:04:28.667Z,98645.88
2022-11-21T17:06:55.382Z,98649.44
2022-11-21T17:09:21.887Z,98653.09
2022-11-21T17:11:48.567Z,98667.91
2022-11-21T17:14:15.157Z,98673.94
2022-11-21T17:16:41.881Z,98668.78
2022-11-21T17:19:11.353Z,98662.25
2022-11-21T17:21:38.015Z,98662.16
2022-11-21T17:24:04.666Z,98638.44
2022-11-21T17:26:31.550Z,98652.66
2022-11-21T17:29:00.589Z,98656.03
2022-11-21T17:31:27.916Z,98653.50
2022-11-21T17:33:57.096Z,98648.25
2022-11-21T17:36:26.155Z,98655.75
2022-11-21T17:38:53.280Z,98639.03
2022-11-21T17:41:21.409Z,98647.88
2022-11-21T17:43:48.866Z,98638.50
2022-11-21T17:46:19.892Z,98614.97
2022-11-21T17:48:54.566Z,98631.78
2022-11-21T17:51:25.549Z,98628.22
2022-11-21T17:53:52.757Z,98620.78
2022-11-21T17:56:21.509Z,98626.78
2022-11-21T17:58:48.444Z,98625.31
2022-11-21T18:01:19.549Z,98621.81
2022-11-21T18:03:47.850Z,98610.72
2022-11-21T18:06:16.687Z,98630.22
2022-11-21T18:08:46.228Z,98608.13
2022-11-21T18:11:15.408Z,98619.78
2022-11-21T18:13:42.140Z,98607.41
2022-11-21T18:16:11.596Z,98595.81
2022-11-21T18:18:38.854Z,98594.06
2022-11-21T18:21:10.297Z,98611.13
2022-11-21T18:23:36.907Z,98609.66
2022-11-21T18:26:08.074Z,98614.91
2022-11-21T18:28:34.583Z,98572.69
2022-11-21T18:31:13.075Z,98609.81
2022-11-21T18:33:40.987Z,98621.09
2022-11-21T18:36:09.118Z,98614.06
2022-11-21T18:38:48.899Z,98605.41
2022-11-21T18:41:20.528Z,98623.56
2022-11-21T18:43:52.415Z,98622.78
2022-11-21T18:46:20.037Z,98612.31
2022-11-21T18:49:02.150Z,98624.06
2022-11-21T18:51:31.665Z,98622.34
2022-11-21T18:54:00.792Z,98633.31
2022-11-21T18:56:27.316Z,98630.59
2022-11-21T18:58:58.612Z,98625.22
2022-11-21T19:01:27.711Z,98626.50
2022-11-21T19:03:54.561Z,98627.94
2022-11-21T19:06:23.224Z,98618.34
2022-11-21T19:08:53.205Z,98622.84
2022-11-21T19:11:20.953Z,98616.66
2022-11-21T19:13:49.048Z,98607.25
2022-11-21T19:16:20.962Z,98612.50
2022-11-21T19:19:05.535Z,98598.41
2022-11-21T19:21:38.346Z,98574.19
2022-11-21T19:24:06.823Z,98584.19
2022-11-21T19:26:33.762Z,98583.13
2022-11-21T19:29:00.320Z,98582.28
2022-11-21T19:31:26.916Z,98551.84
2022-11-21T19:33:53.488Z,98584.19
2022-11-21T19:36:21.792Z,98583.41
2022-11-21T19:38:51.190Z,98579.84
2022-11-21T19:41:24.320Z,98561.44
2022-11-21T19:43:56.433Z,98561.63
2022-11-21T19:46:25.498Z,98557.13
2022-11-21T19:48:54.390Z,98556.09
2022-11-21T19:51:23.189Z,98542.38
2022-11-21T19:53:49.790Z,98551.88
2022-11-21T19:56:16.262Z,98543.06
2022-11-21T19:58:43.710Z,98543.81
2022-11-21T20:01:24.591Z,98549.91
2022-11-21T20:03:54.259Z,98551.50
2022-11-21T20:06:28.166Z,98507.91
2022-11-21T20:08:57.130Z,98533.56
2022-11-21T20:11:25.092Z,98512.03
2022-11-21T20:13:52.007Z,98522.66
2022-11-21T20:16:32.541Z,98516.84
2022-11-21T20:19:01.776Z,98500.59
2022-11-21T20:21:28.894Z,98516.94
2022-11-21T20:23:55.902Z,98514.50
2022-11-21T20:26:22.905Z,98498.91
2022-11-21T20:28:49.903Z,98498.91
2022-11-21T20:31:25.061Z,98496.84
2022-11-21T20:33:54.075Z,98494.97
2022-11-21T20:36:22.785Z,98494.81
2022-11-21T20:38:54.586Z,98490.41
2022-11-21T20:41:22.893Z,98485.13
2022-11-21T20:44:41.693Z,98484.09
2022-11-21T20:46:40.657Z,98493.75
2022-11-21T20:49:07.643Z,98486.53
2022-11-21T20:52:56.051Z,98459.47
2022-11-21T20:54:20.701Z,98482.22
2022-11-21T20:56:47.326Z,98477.72
2022-11-21T20:59:14.477Z,98469.06
2022-11-21T21:01:41.599Z,98441.84
2022-11-21T21:04:09.347Z,98459.69
2022-11-21T21:06:37.461Z,98477.44
2022-11-21T21:09:04.595Z,98467.00
2022-11-21T21:11:50.888Z,98434.25
2022-11-21T21:14:17.604Z,98459.31
2022-11-21T21:16:44.099Z,98464.75
2022-11-21T21:19:10.719Z,98455.28
2022-11-21T21:21:37.255Z,98457.94
2022-11-21T21:24:06.750Z,98460.25
2022-11-21T21:26:43.063Z,98466.66
2022-11-21T21:29:16.132Z,98459.63
2022-11-21T21:31:49.930Z,98432.75
2022-11-21T21:34:17.147Z,98455.56
2022-11-21T21:36:43.710Z,98447.28
2022-11-21T21:39:10.176Z,98452.94
2022-11-21T21:41:39.910Z,98442.78
2022-11-21T21:44:06.826Z,98419.28
2022-11-21T21:46:33.419Z,98433.19
2022-11-21T21:48:59.970Z,98426.88
2022-11-21T21:51:30.789Z,98409.38
2022-11-21T21:53:58.884Z,98434.03
2022-11-21T21:56:27.433Z,98428.28
2022-11-21T21:58:55.004Z,98421.53
2022-11-21T22:01:30.178Z,98415.94
2022-11-21T22:04:01.889Z,98416.03
2022-11-21T22:06:29.524Z,98416.16
2022-11-21T22:08:56.400Z,98427.38
2022-11-21T22:11:28.168Z,98423.19
2022-11-21T22:13:59.320Z,98424.03
2022-11-21T22:16:26.384Z,98391.59
2022-11-21T22:18:52.934Z,98423.75
2022-11-21T22:21:27.900Z,98405.91
2022-11-21T22:24:23.725Z,98409.00
2022-11-21T22:26:42.393Z,98435.50
2022-11-21T22:29:08.964Z,98417.66
2022-11-21T22:31:35.533Z,98437.00
2022-11-21T22:34:02.328Z,98439.06
2022-11-21T22:36:28.883Z,98440.94
2022-11-21T22:38:56.537Z,98445.25
2022-11-21T22:41:25.487Z,98428.91
2022-11-21T22:43:54.615Z,98400.56
2022-11-21T22:46:22.189Z,98433.66
2022-11-21T22:48:48.972Z,98434.16
2022-11-21T22:51:18.894Z,98441.09
2022-11-21T22:53:46.737Z,98429.06
2022-11-21T22:56:15.222Z,98430.00
2022-11-21T22:58:42.345Z,98421.41
2022-11-21T23:01:12.431Z,98424.84
2022-11-21T23:03:39.858Z,98406.25
2022-11-21T23:06:07.439Z,98418.78
2022-11-21T23:08:34.792Z,98412.47
2022-11-21T23:11:03.499Z,98409.94
2022-11-21T23:13:30.243Z,98401.34
2022-11-21T23:15:56.846Z,98396.94
2022-11-21T23:18:23.449Z,98398.41
2022-11-21T23:20:50.399Z,98388.31
2022-11-21T23:23:16.922Z,98388.47
2022-11-21T23:25:43.432Z,98377.28
2022-11-21T23:28:10.100Z,98357.94
2022-11-21T23:30:36.701Z,98387.28
2022-11-21T23:33:03.385Z,98376.56
2022-11-21T23:35:29.937Z,98364.69
2022-11-21T23:37:56.450Z,98390.47
2022-11-21T23:40:23.036Z,98382.59
2022-11-21T23:42:49.618Z,98371.41
2022-11-21T23:45:16.187Z,98353.09
2022-11-21T23:47:42.726Z,98388.00
2022-11-21T23:50:09.467Z,98384.66
2022-11-21T23:52:36.015Z,98370.00
2022-11-21T23:55:02.671Z,98370.00
2022-11-21T23:57:29.186Z,98359.78
2022-11-21T23:59:56.207Z,98374.97
